Time;durP1;ratioP1;P1;durP2;ratioP2;P2;SDS_P1;SDS_P2;PMS_P1;PMS_P2;Temp;Humidity;BMP_temperature;BMP_pressure;BME280_temperature;BME280_humidity;BME280_pressure;Samples;Min_cycle;Max_cycle;Signal;HPM_P1;HPM_P2
2021/08/26 00:00:42;;;;;;;;;;;13.30;1.00;;;;;;5029240;28;19971;-67
2021/08/26 00:05:53;;;;;;;;;;;13.20;1.00;;;;;;5029108;28;20441;-67
2021/08/26 00:08:19;;;;;;;;;;;13.20;1.00;;;;;;5029088;28;19949;-67
2021/08/26 00:10:45;;;;;;;;;;;13.20;1.00;;;;;;5028243;28;20382;-66
2021/08/26 00:13:11;;;;;;;;;;;13.20;1.00;;;;;;5027705;28;19997;-67
2021/08/26 00:15:40;;;;;;;;;;;13.10;1.00;;;;;;5028224;28;19965;-67
2021/08/26 00:18:05;;;;;;;;;;;13.10;99.90;;;;;;5029276;28;19988;-67
2021/08/26 00:20:32;;;;;;;;;;;13.00;99.90;;;;;;5022973;28;19967;-67
2021/08/26 00:22:58;;;;;;;;;;;13.00;99.90;;;;;;5008816;28;19928;-66
2021/08/26 00:25:23;;;;;;;;;;;13.00;99.90;;;;;;5028594;28;20000;-67
2021/08/26 00:27:49;;;;;;;;;;;13.00;99.90;;;;;;5028152;28;19967;-67
2021/08/26 00:30:14;;;;;;;;;;;12.90;1.00;;;;;;5009098;28;19960;-66
2021/08/26 00:32:40;;;;;;;;;;;12.90;1.00;;;;;;5008906;28;20235;-67
2021/08/26 00:35:05;;;;;;;;;;;12.90;1.00;;;;;;5009357;28;19922;-66
2021/08/26 00:37:31;;;;;;;;;;;12.80;1.00;;;;;;5015443;28;20003;-66
2021/08/26 00:39:56;;;;;;;;;;;12.80;1.00;;;;;;5029136;28;19913;-66
2021/08/26 00:42:22;;;;;;;;;;;12.80;1.00;;;;;;5027752;28;19999;-66
2021/08/26 00:44:48;;;;;;;;;;;12.70;1.00;;;;;;5028554;28;19995;-67
2021/08/26 00:47:13;;;;;;;;;;;12.70;1.00;;;;;;5028448;28;20339;-67
2021/08/26 00:49:39;;;;;;;;;;;12.70;1.00;;;;;;5027063;28;19916;-67
2021/08/26 00:52:08;;;;;;;;;;;12.70;1.00;;;;;;5007736;28;20321;-67
2021/08/26 00:54:33;;;;;;;;;;;12.80;1.00;;;;;;5009426;28;20298;-66
2021/08/26 00:56:59;;;;;;;;;;;12.70;1.00;;;;;;5008826;28;19913;-66
2021/08/26 00:59:26;;;;;;;;;;;12.70;1.00;;;;;;5009087;28;19932;-66
2021/08/26 01:01:55;;;;;;;;;;;12.60;1.00;;;;;;5007811;28;19910;-66
2021/08/26 01:04:26;;;;;;;;;;;12.60;1.00;;;;;;5008864;28;19951;-67
2021/08/26 01:06:59;;;;;;;;;;;12.50;1.00;;;;;;5009212;28;20024;-66
2021/08/26 01:09:28;;;;;;;;;;;12.60;1.00;;;;;;5009379;28;20298;-66
2021/08/26 01:11:55;;;;;;;;;;;12.60;1.00;;;;;;5008164;28;20017;-66
2021/08/26 01:14:20;;;;;;;;;;;12.60;1.00;;;;;;5008710;28;19972;-67
2021/08/26 01:16:46;;;;;;;;;;;12.60;1.00;;;;;;5006848;28;20483;-66
2021/08/26 01:19:11;;;;;;;;;;;12.70;1.00;;;;;;5009148;28;19913;-65
2021/08/26 01:21:37;;;;;;;;;;;12.70;1.00;;;;;;5009361;28;19949;-66
2021/08/26 01:24:05;;;;;;;;;;;12.70;1.00;;;;;;5019820;28;19932;-66
2021/08/26 01:26:33;;;;;;;;;;;12.70;1.00;;;;;;5031383;28;19975;-66
2021/08/26 01:28:59;;;;;;;;;;;12.70;1.00;;;;;;5013686;28;19909;-66
2021/08/26 01:31:24;;;;;;;;;;;12.70;1.00;;;;;;5011256;28;19959;-67
2021/08/26 01:33:50;;;;;;;;;;;12.60;1.00;;;;;;5011346;28;19974;-68
2021/08/26 01:36:16;;;;;;;;;;;12.60;1.00;;;;;;5011484;28;19925;-68
2021/08/26 01:38:42;;;;;;;;;;;12.60;1.00;;;;;;5027033;28;20469;-66
2021/08/26 01:41:08;;;;;;;;;;;12.50;1.00;;;;;;5031822;28;20322;-67
2021/08/26 01:43:34;;;;;;;;;;;12.50;1.00;;;;;;5030545;28;19960;-67
2021/08/26 01:46:00;;;;;;;;;;;12.40;1.00;;;;;;5030462;28;20385;-67
2021/08/26 01:48:25;;;;;;;;;;;12.50;1.00;;;;;;5031323;28;19909;-66
2021/08/26 01:50:51;;;;;;;;;;;12.50;1.00;;;;;;5019944;28;19920;-66
2021/08/26 01:53:17;;;;;;;;;;;12.60;1.00;;;;;;5011470;28;19910;-67
2021/08/26 01:55:42;;;;;;;;;;;12.60;1.00;;;;;;5011919;28;20362;-66
2021/08/26 01:58:12;;;;;;;;;;;12.60;1.00;;;;;;5012275;28;19917;-67
2021/08/26 02:00:38;;;;;;;;;;;12.60;1.00;;;;;;5010915;28;19916;-66
2021/08/26 02:03:03;;;;;;;;;;;12.60;1.00;;;;;;5011229;28;19910;-67
2021/08/26 02:05:29;;;;;;;;;;;12.60;1.00;;;;;;5012157;28;20393;-66
2021/08/26 02:07:55;;;;;;;;;;;12.60;1.00;;;;;;5012165;28;20051;-67
2021/08/26 02:10:21;;;;;;;;;;;12.60;1.00;;;;;;5012024;28;19921;-67
2021/08/26 02:12:46;;;;;;;;;;;12.60;1.00;;;;;;5010563;28;19914;-67
2021/08/26 02:15:12;;;;;;;;;;;12.60;1.00;;;;;;5011290;28;19917;-66
2021/08/26 02:17:37;;;;;;;;;;;12.50;1.00;;;;;;5011424;28;19913;-66
2021/08/26 02:20:04;;;;;;;;;;;12.50;1.00;;;;;;5011140;28;19917;-67
2021/08/26 02:22:29;;;;;;;;;;;12.40;1.00;;;;;;5010615;28;20354;-67
2021/08/26 02:24:55;;;;;;;;;;;12.40;1.00;;;;;;5026687;28;19913;-66
2021/08/26 02:27:20;;;;;;;;;;;12.40;1.00;;;;;;5023594;28;19918;-67
2021/08/26 02:29:46;;;;;;;;;;;12.40;1.00;;;;;;5013196;28;19916;-68
2021/08/26 02:32:11;;;;;;;;;;;12.40;1.00;;;;;;5010071;28;19917;-67
2021/08/26 02:34:37;;;;;;;;;;;12.30;1.00;;;;;;5010232;28;19914;-67
2021/08/26 02:37:02;;;;;;;;;;;12.30;1.00;;;;;;5013143;28;19913;-66
2021/08/26 02:39:28;;;;;;;;;;;12.30;1.00;;;;;;5031313;28;19981;-66
2021/08/26 02:41:53;;;;;;;;;;;12.40;1.00;;;;;;5029959;28;19917;-68
2021/08/26 02:44:19;;;;;;;;;;;12.30;1.00;;;;;;5031565;28;19999;-67
2021/08/26 02:46:44;;;;;;;;;;;12.30;1.00;;;;;;5029908;28;20381;-67
2021/08/26 02:49:10;;;;;;;;;;;12.30;1.00;;;;;;5031503;28;19917;-67
2021/08/26 02:51:35;;;;;;;;;;;12.20;1.00;;;;;;5013425;28;20367;-66
2021/08/26 02:54:01;;;;;;;;;;;12.20;1.00;;;;;;5010886;28;19949;-66
2021/08/26 02:56:26;;;;;;;;;;;12.10;1.00;;;;;;5011147;28;20330;-66
2021/08/26 02:58:52;;;;;;;;;;;12.10;1.00;;;;;;5010395;28;19913;-66
2021/08/26 03:01:17;;;;;;;;;;;12.10;1.00;;;;;;5009613;28;20330;-66
2021/08/26 03:03:43;;;;;;;;;;;12.10;1.00;;;;;;5010334;28;19913;-66
2021/08/26 03:06:08;;;;;;;;;;;12.10;1.00;;;;;;5010999;28;19909;-66
2021/08/26 03:08:34;;;;;;;;;;;12.10;1.00;;;;;;5011278;28;19920;-66
2021/08/26 03:10:59;;;;;;;;;;;12.10;1.00;;;;;;5010566;28;19924;-66
2021/08/26 03:13:25;;;;;;;;;;;12.10;1.00;;;;;;5009946;28;19917;-66
2021/08/26 03:15:50;;;;;;;;;;;12.10;1.00;;;;;;5010024;28;19916;-66
2021/08/26 03:18:16;;;;;;;;;;;12.10;1.00;;;;;;5011199;28;20000;-66
2021/08/26 03:20:42;;;;;;;;;;;12.10;1.00;;;;;;5011072;28;19958;-66
2021/08/26 03:23:08;;;;;;;;;;;12.10;1.00;;;;;;5010432;28;20375;-66
2021/08/26 03:25:33;;;;;;;;;;;12.10;1.00;;;;;;5030264;28;20433;-66
2021/08/26 03:27:59;;;;;;;;;;;12.00;1.00;;;;;;5019352;28;19909;-66
2021/08/26 03:30:24;;;;;;;;;;;11.90;1.00;;;;;;5009781;28;19972;-66
2021/08/26 03:32:50;;;;;;;;;;;11.80;1.00;;;;;;5009677;28;20384;-66
2021/08/26 03:35:15;;;;;;;;;;;11.70;1.00;;;;;;5010153;28;19918;-66
2021/08/26 03:37:41;;;;;;;;;;;11.60;1.00;;;;;;5017455;28;19917;-66
2021/08/26 03:40:07;;;;;;;;;;;11.50;1.00;;;;;;5030354;28;19959;-66
2021/08/26 03:42:32;;;;;;;;;;;11.50;1.00;;;;;;5029248;28;20416;-66
2021/08/26 03:44:58;;;;;;;;;;;11.50;1.00;;;;;;5029546;28;19967;-66
2021/08/26 03:47:23;;;;;;;;;;;11.40;1.00;;;;;;5029187;28;19909;-66
2021/08/26 03:49:49;;;;;;;;;;;11.40;1.00;;;;;;5026583;28;19952;-66
2021/08/26 03:52:14;;;;;;;;;;;11.40;1.00;;;;;;5009360;28;19917;-66
2021/08/26 03:54:40;;;;;;;;;;;11.30;1.00;;;;;;5010332;28;19913;-66
2021/08/26 03:57:05;;;;;;;;;;;11.30;1.00;;;;;;5008875;28;19988;-66
2021/08/26 03:59:31;;;;;;;;;;;11.30;1.00;;;;;;5010303;28;19967;-66
2021/08/26 04:01:56;;;;;;;;;;;11.30;1.00;;;;;;5008641;28;19909;-66
2021/08/26 04:04:22;;;;;;;;;;;11.30;1.00;;;;;;5010291;28;19964;-66
2021/08/26 04:06:47;;;;;;;;;;;11.30;1.00;;;;;;5010039;28;19909;-66
2021/08/26 04:09:13;;;;;;;;;;;11.30;1.00;;;;;;5009632;28;20103;-66
2021/08/26 04:11:38;;;;;;;;;;;11.30;1.00;;;;;;5009475;28;19917;-66
2021/08/26 04:14:03;;;;;;;;;;;11.30;1.00;;;;;;5008955;28;20373;-66
2021/08/26 04:16:29;;;;;;;;;;;11.30;1.00;;;;;;5008275;28;20012;-66
2021/08/26 04:18:54;;;;;;;;;;;11.30;1.00;;;;;;5009385;28;20298;-66
2021/08/26 04:21:20;;;;;;;;;;;11.40;1.00;;;;;;5009515;28;20048;-66
2021/08/26 04:23:46;;;;;;;;;;;11.40;1.00;;;;;;5013422;28;19916;-66
2021/08/26 04:26:11;;;;;;;;;;;11.40;1.00;;;;;;5029486;28;19909;-66
2021/08/26 04:28:37;;;;;;;;;;;11.50;1.00;;;;;;5020394;28;19914;-66
2021/08/26 04:31:02;;;;;;;;;;;11.50;1.00;;;;;;5020113;28;19917;-66
2021/08/26 04:33:28;;;;;;;;;;;11.50;1.00;;;;;;5009360;28;19952;-66
2021/08/26 04:35:53;;;;;;;;;;;11.50;1.00;;;;;;5008664;28;19928;-66
2021/08/26 04:38:19;;;;;;;;;;;11.50;1.00;;;;;;5009497;28;19956;-66
2021/08/26 04:40:44;;;;;;;;;;;11.50;1.00;;;;;;5009175;28;19910;-66
2021/08/26 04:43:10;;;;;;;;;;;11.50;1.00;;;;;;5008163;28;19952;-65
2021/08/26 04:45:35;;;;;;;;;;;11.50;1.00;;;;;;5008395;28;19914;-66
2021/08/26 04:48:01;;;;;;;;;;;11.50;1.00;;;;;;5009630;28;19910;-66
2021/08/26 04:50:26;;;;;;;;;;;11.50;1.00;;;;;;5017099;28;20384;-66
2021/08/26 04:52:52;;;;;;;;;;;11.50;1.00;;;;;;5013449;28;19960;-66
2021/08/26 04:55:17;;;;;;;;;;;11.50;1.00;;;;;;5005073;28;19948;-68
2021/08/26 04:57:43;;;;;;;;;;;11.50;1.00;;;;;;5010215;28;20051;-65
2021/08/26 05:00:09;;;;;;;;;;;11.50;1.00;;;;;;5012410;28;19967;-68
2021/08/26 05:02:34;;;;;;;;;;;11.60;1.00;;;;;;5012085;28;19953;-65
2021/08/26 05:05:00;;;;;;;;;;;11.70;1.00;;;;;;5013011;28;20000;-66
2021/08/26 05:07:25;;;;;;;;;;;11.80;1.00;;;;;;5012605;28;19940;-68
2021/08/26 05:09:51;;;;;;;;;;;11.90;1.00;;;;;;5013036;28;19910;-66
2021/08/26 05:12:16;;;;;;;;;;;11.90;1.00;;;;;;5011852;28;19948;-66
2021/08/26 05:14:42;;;;;;;;;;;12.00;1.00;;;;;;5013178;28;20401;-66
2021/08/26 05:17:07;;;;;;;;;;;12.00;1.00;;;;;;5011468;28;20013;-69
2021/08/26 05:19:33;;;;;;;;;;;12.10;1.00;;;;;;5012591;28;19928;-67
2021/08/26 05:21:58;;;;;;;;;;;12.10;1.00;;;;;;4992381;28;19945;-66
2021/08/26 05:24:24;;;;;;;;;;;12.10;1.00;;;;;;5011613;28;19909;-69
2021/08/26 05:26:49;;;;;;;;;;;12.20;1.00;;;;;;5010734;28;19917;-69
2021/08/26 05:29:15;;;;;;;;;;;12.30;1.00;;;;;;5019367;28;20290;-65
2021/08/26 05:31:40;;;;;;;;;;;12.30;1.00;;;;;;5011446;28;19924;-67
2021/08/26 05:34:06;;;;;;;;;;;12.30;1.00;;;;;;5012380;28;19918;-68
2021/08/26 05:36:32;;;;;;;;;;;12.40;1.00;;;;;;5012595;28;19917;-68
2021/08/26 05:38:57;;;;;;;;;;;12.50;1.00;;;;;;5017351;28;19920;-66
2021/08/26 05:41:23;;;;;;;;;;;12.60;1.00;;;;;;5012147;28;19987;-66
2021/08/26 05:43:48;;;;;;;;;;;12.60;1.00;;;;;;5010833;28;19917;-66
2021/08/26 05:46:13;;;;;;;;;;;12.70;1.00;;;;;;5011540;28;19913;-66
2021/08/26 05:48:39;;;;;;;;;;;12.80;1.00;;;;;;5012703;28;19932;-66
2021/08/26 05:51:05;;;;;;;;;;;12.80;1.00;;;;;;4998765;28;20608;-66
2021/08/26 05:53:30;;;;;;;;;;;13.00;1.00;;;;;;4992142;28;20040;-67
2021/08/26 05:55:56;;;;;;;;;;;13.10;1.00;;;;;;4992015;28;19914;-67
2021/08/26 05:58:21;;;;;;;;;;;13.30;1.00;;;;;;4992368;28;19909;-67
2021/08/26 06:00:48;;;;;;;;;;;13.40;99.90;;;;;;4992314;28;19917;-67
2021/08/26 06:03:15;;;;;;;;;;;13.40;99.90;;;;;;4991683;28;20293;-66
2021/08/26 06:05:41;;;;;;;;;;;13.70;99.90;;;;;;4990768;28;20355;-67
2021/08/26 06:08:06;;;;;;;;;;;14.00;1.00;;;;;;4990914;28;20100;-67
2021/08/26 06:10:32;;;;;;;;;;;14.20;1.00;;;;;;4989226;28;19934;-66
2021/08/26 06:12:57;;;;;;;;;;;14.40;99.90;;;;;;4987692;28;20287;-66
2021/08/26 06:15:23;;;;;;;;;;;14.50;1.00;;;;;;5002829;28;19910;-66
2021/08/26 06:17:48;;;;;;;;;;;14.60;99.90;;;;;;4988976;28;19914;-66
2021/08/26 06:20:14;;;;;;;;;;;14.60;99.90;;;;;;5008110;28;20482;-66
2021/08/26 06:22:41;;;;;;;;;;;14.60;99.90;;;;;;5008523;28;20004;-67
2021/08/26 06:25:07;;;;;;;;;;;14.60;99.90;;;;;;5025124;28;19910;-66
2021/08/26 06:27:32;;;;;;;;;;;14.50;1.00;;;;;;5019666;28;20394;-66
2021/08/26 06:29:58;;;;;;;;;;;14.50;1.00;;;;;;5007829;28;19909;-67
2021/08/26 06:32:23;;;;;;;;;;;14.40;1.00;;;;;;5009588;28;19992;-66
2021/08/26 06:34:49;;;;;;;;;;;14.40;99.70;;;;;;5011107;28;19938;-66
2021/08/26 06:37:14;;;;;;;;;;;14.40;99.90;;;;;;5014321;28;20246;-67
2021/08/26 06:39:40;;;;;;;;;;;14.40;99.90;;;;;;5031010;28;19924;-67
2021/08/26 06:42:05;;;;;;;;;;;14.40;99.90;;;;;;5029433;28;19928;-66
2021/08/26 06:44:31;;;;;;;;;;;14.30;1.00;;;;;;5031196;28;19950;-66
2021/08/26 06:46:56;;;;;;;;;;;14.40;1.00;;;;;;5017503;28;19909;-66
2021/08/26 06:49:23;;;;;;;;;;;14.40;1.00;;;;;;5010944;28;20291;-67
2021/08/26 06:51:49;;;;;;;;;;;14.40;1.00;;;;;;5010001;28;20405;-66
2021/08/26 06:54:14;;;;;;;;;;;14.50;1.00;;;;;;5010591;28;20021;-66
2021/08/26 06:56:40;;;;;;;;;;;14.50;1.00;;;;;;5010315;28;19936;-67
2021/08/26 06:59:05;;;;;;;;;;;14.50;1.00;;;;;;5005646;28;19921;-67
2021/08/26 07:01:31;;;;;;;;;;;14.50;1.00;;;;;;5007190;28;20032;-66
2021/08/26 07:03:56;;;;;;;;;;;14.50;1.00;;;;;;5005856;28;19917;-67
2021/08/26 07:06:22;;;;;;;;;;;14.50;1.00;;;;;;5002210;28;19939;-67
2021/08/26 07:08:47;;;;;;;;;;;14.40;1.00;;;;;;4999653;28;20282;-67
2021/08/26 07:11:13;;;;;;;;;;;14.50;1.00;;;;;;5000141;28;19921;-66
2021/08/26 07:13:38;;;;;;;;;;;14.50;1.00;;;;;;4999830;28;19936;-67
2021/08/26 07:16:04;;;;;;;;;;;14.50;1.00;;;;;;5001725;28;20382;-66
2021/08/26 07:18:29;;;;;;;;;;;14.50;1.00;;;;;;5003288;28;19913;-66
2021/08/26 07:20:55;;;;;;;;;;;14.50;1.00;;;;;;4998247;28;19917;-67
2021/08/26 07:23:21;;;;;;;;;;;14.50;1.00;;;;;;5005853;28;20004;-67
2021/08/26 07:25:47;;;;;;;;;;;14.50;1.00;;;;;;5029015;28;19917;-65
2021/08/26 07:28:12;;;;;;;;;;;14.60;1.00;;;;;;5025076;28;19914;-68
2021/08/26 07:30:38;;;;;;;;;;;14.60;1.00;;;;;;5009562;28;19914;-65
2021/08/26 07:33:04;;;;;;;;;;;14.70;1.00;;;;;;5009697;28;20048;-65
2021/08/26 07:35:29;;;;;;;;;;;14.80;1.00;;;;;;5010147;28;19921;-65
2021/08/26 07:37:55;;;;;;;;;;;14.90;1.00;;;;;;5019009;28;19913;-66
2021/08/26 07:40:21;;;;;;;;;;;14.90;1.00;;;;;;5029538;28;19909;-66
2021/08/26 07:42:46;;;;;;;;;;;14.90;99.90;;;;;;5028773;28;20011;-66
2021/08/26 07:45:12;;;;;;;;;;;14.90;1.00;;;;;;5029711;28;19913;-66
2021/08/26 07:47:37;;;;;;;;;;;15.00;1.00;;;;;;5029243;28;19952;-66
2021/08/26 07:50:06;;;;;;;;;;;15.00;1.00;;;;;;5028995;28;20302;-66
2021/08/26 07:52:32;;;;;;;;;;;15.00;1.00;;;;;;5020205;28;19913;-65
2021/08/26 07:54:58;;;;;;;;;;;15.00;1.00;;;;;;5028456;28;20274;-65
2021/08/26 07:57:24;;;;;;;;;;;15.00;1.00;;;;;;5028849;28;19917;-66
2021/08/26 07:59:50;;;;;;;;;;;14.90;1.00;;;;;;5029956;28;20004;-66
2021/08/26 08:02:15;;;;;;;;;;;14.90;1.00;;;;;;5029180;28;20523;-66
2021/08/26 08:04:41;;;;;;;;;;;14.90;1.00;;;;;;5029045;28;20352;-66
2021/08/26 08:07:06;;;;;;;;;;;14.90;1.00;;;;;;5031017;28;19915;-65
2021/08/26 08:09:33;;;;;;;;;;;14.80;1.00;;;;;;5030504;28;20431;-65
2021/08/26 08:12:00;;;;;;;;;;;14.80;99.90;;;;;;5028729;28;19921;-65
2021/08/26 08:14:25;;;;;;;;;;;14.80;99.90;;;;;;5029268;28;19913;-66
2021/08/26 08:16:51;;;;;;;;;;;14.80;99.90;;;;;;5028932;28;19913;-67
2021/08/26 08:19:16;;;;;;;;;;;14.90;81.20;;;;;;5017138;28;20016;-64
2021/08/26 08:21:42;;;;;;;;;;;14.90;4.30;;;;;;5009756;28;19910;-65
2021/08/26 08:24:07;;;;;;;;;;;15.00;1.00;;;;;;5017346;28;19910;-64
2021/08/26 08:26:33;;;;;;;;;;;15.10;1.00;;;;;;5028840;28;19909;-64
2021/08/26 08:28:59;;;;;;;;;;;15.20;1.00;;;;;;5019167;28;20364;-63
2021/08/26 08:31:25;;;;;;;;;;;15.30;1.00;;;;;;5008141;28;20668;-62
2021/08/26 08:33:50;;;;;;;;;;;15.40;1.00;;;;;;5008447;28;20004;-62
2021/08/26 08:36:17;;;;;;;;;;;15.50;99.90;;;;;;5008680;28;19992;-64
2021/08/26 08:38:42;;;;;;;;;;;15.70;99.90;;;;;;5023986;28;20378;-63
2021/08/26 08:41:08;;;;;;;;;;;15.80;99.90;;;;;;5028546;28;19909;-63
2021/08/26 08:43:34;;;;;;;;;;;15.90;1.00;;;;;;5028057;28;19959;-63
2021/08/26 08:46:01;;;;;;;;;;;16.00;99.90;;;;;;5028159;28;20050;-63
2021/08/26 08:48:27;;;;;;;;;;;16.00;99.90;;;;;;5028622;28;19909;-63
2021/08/26 08:50:52;;;;;;;;;;;16.20;1.00;;;;;;5016727;28;19914;-64
2021/08/26 08:53:18;;;;;;;;;;;16.30;1.00;;;;;;5009032;28;19931;-64
2021/08/26 08:55:45;;;;;;;;;;;16.20;1.00;;;;;;5009633;28;19917;-65
2021/08/26 08:58:11;;;;;;;;;;;16.20;99.90;;;;;;5009464;28;19909;-66
2021/08/26 09:00:37;;;;;;;;;;;16.20;1.00;;;;;;5008708;28;20008;-65
2021/08/26 09:03:03;;;;;;;;;;;16.40;1.00;;;;;;5009140;28;20394;-65
2021/08/26 09:05:47;;;;;;;;;;;16.40;1.00;;;;;;5009751;28;19910;-65
2021/08/26 09:08:13;;;;;;;;;;;16.50;59.20;;;;;;5010000;28;19921;-65
2021/08/26 09:10:38;;;;;;;;;;;16.50;99.90;;;;;;5009089;28;19918;-65
2021/08/26 09:13:05;;;;;;;;;;;16.60;99.90;;;;;;5000759;28;20298;-65
2021/08/26 09:15:31;;;;;;;;;;;16.70;1.00;;;;;;4998970;28;20019;-65
2021/08/26 09:18:15;;;;;;;;;;;16.80;1.00;;;;;;5016094;23;19964;-64
2021/08/26 09:20:54;;;;;;;;;;;16.80;99.90;;;;;;5004041;28;19913;-63
2021/08/26 09:23:23;;;;;;;;;;;16.80;1.00;;;;;;5004503;28;19917;-64
2021/08/26 09:25:49;;;;;;;;;;;16.80;99.90;;;;;;5008735;28;19917;-64
2021/08/26 09:28:31;;;;;;;;;;;16.80;99.90;;;;;;4986608;28;20286;-63
2021/08/26 09:31:11;;;;;;;;;;;16.80;99.90;;;;;;4987773;28;19932;-63
2021/08/26 09:33:56;;;;;;;;;;;16.80;1.00;;;;;;4988933;28;19928;-63
2021/08/26 09:36:44;;;;;;;;;;;16.70;1.00;;;;;;4986307;28;19910;-64
2021/08/26 09:39:14;;;;;;;;;;;16.70;1.00;;;;;;4983131;28;20000;-63
2021/08/26 09:41:41;;;;;;;;;;;16.80;99.90;;;;;;4988037;28;19987;-64
2021/08/26 09:44:08;;;;;;;;;;;16.90;1.00;;;;;;4992154;28;20267;-63
2021/08/26 09:46:34;;;;;;;;;;;17.00;99.90;;;;;;4991704;28;19917;-64
2021/08/26 09:49:03;;;;;;;;;;;17.00;98.80;;;;;;4991813;28;19941;-65
2021/08/26 09:51:29;;;;;;;;;;;17.00;1.00;;;;;;4991980;28;20020;-63
2021/08/26 09:53:55;;;;;;;;;;;17.00;1.00;;;;;;4991686;28;20117;-63
2021/08/26 09:56:20;;;;;;;;;;;17.00;99.90;;;;;;4992683;28;19917;-64
2021/08/26 09:58:52;;;;;;;;;;;17.10;99.90;;;;;;4992190;28;19909;-63
2021/08/26 10:01:20;;;;;;;;;;;17.30;79.70;;;;;;4991541;28;19921;-62
2021/08/26 10:03:46;;;;;;;;;;;17.50;1.00;;;;;;4991417;28;20259;-65
2021/08/26 10:06:12;;;;;;;;;;;17.60;1.00;;;;;;4991876;28;19913;-65
2021/08/26 10:08:39;;;;;;;;;;;17.70;99.90;;;;;;4992357;28;19913;-64
2021/08/26 10:11:07;;;;;;;;;;;17.70;1.00;;;;;;4992014;28;19918;-65
2021/08/26 10:13:32;;;;;;;;;;;17.70;1.00;;;;;;4991714;28;19913;-64
2021/08/26 10:15:58;;;;;;;;;;;17.50;99.90;;;;;;4991247;28;20229;-63
2021/08/26 10:18:24;;;;;;;;;;;17.40;99.90;;;;;;4992057;28;19956;-63
2021/08/26 10:20:50;;;;;;;;;;;17.40;99.90;;;;;;4991974;28;19918;-64
2021/08/26 10:23:15;;;;;;;;;;;17.30;99.90;;;;;;4990766;28;19960;-64
2021/08/26 10:25:42;;;;;;;;;;;17.20;99.90;;;;;;4989657;28;20056;-62
2021/08/26 10:28:08;;;;;;;;;;;17.10;99.90;;;;;;4993136;28;19973;-63
2021/08/26 10:30:35;;;;;;;;;;;17.10;17.10;;;;;;4990845;28;19910;-64
2021/08/26 10:33:08;;;;;;;;;;;17.10;1.00;;;;;;4991058;28;20024;-64
2021/08/26 10:35:34;;;;;;;;;;;17.10;1.00;;;;;;4991113;28;19914;-64
2021/08/26 10:38:00;;;;;;;;;;;17.10;1.00;;;;;;4988394;28;19976;-63
2021/08/26 10:40:26;;;;;;;;;;;17.10;1.00;;;;;;4991462;28;19909;-64
2021/08/26 10:42:52;;;;;;;;;;;17.10;99.90;;;;;;4990545;28;19937;-65
2021/08/26 10:45:29;;;;;;;;;;;17.10;99.90;;;;;;4991231;28;19917;-64
2021/08/26 10:47:57;;;;;;;;;;;17.30;99.90;;;;;;4991495;28;19914;-64
2021/08/26 10:50:25;;;;;;;;;;;17.40;99.90;;;;;;4991013;28;19921;-64
2021/08/26 10:52:54;;;;;;;;;;;17.40;99.90;;;;;;4983002;28;19952;-64
2021/08/26 10:55:31;;;;;;;;;;;17.50;66.00;;;;;;4990106;28;20371;-64
2021/08/26 10:58:15;;;;;;;;;;;17.70;14.90;;;;;;5006336;28;20005;-64
2021/08/26 11:00:42;;;;;;;;;;;17.80;1.00;;;;;;4990699;28;19984;-64
2021/08/26 11:03:08;;;;;;;;;;;17.70;1.00;;;;;;4990555;28;19941;-65
2021/08/26 11:05:34;;;;;;;;;;;17.70;99.90;;;;;;4991222;28;19965;-63
2021/08/26 11:07:59;;;;;;;;;;;17.80;99.90;;;;;;4991662;28;20064;-65
2021/08/26 11:10:26;;;;;;;;;;;18.00;72.10;;;;;;4991550;28;20410;-65
2021/08/26 11:12:51;;;;;;;;;;;18.10;1.00;;;;;;4990581;28;20428;-65
2021/08/26 11:15:24;;;;;;;;;;;18.20;1.00;;;;;;4990586;28;19917;-65
2021/08/26 11:17:50;;;;;;;;;;;18.40;1.00;;;;;;4990124;28;20031;-64
2021/08/26 11:20:25;;;;;;;;;;;18.60;1.00;;;;;;4990284;28;20004;-64
2021/08/26 11:23:04;;;;;;;;;;;18.70;99.90;;;;;;4990206;28;20422;-65
2021/08/26 11:25:29;;;;;;;;;;;18.70;99.90;;;;;;4987676;28;20617;-65
2021/08/26 11:28:21;;;;;;;;;;;18.90;96.80;;;;;;4990187;28;19941;-64
2021/08/26 11:30:47;;;;;;;;;;;18.90;1.00;;;;;;4986806;28;20551;-65
2021/08/26 11:33:25;;;;;;;;;;;18.90;1.00;;;;;;4989601;28;19920;-64
2021/08/26 11:35:50;;;;;;;;;;;18.70;1.00;;;;;;4988280;28;19949;-64
2021/08/26 11:38:16;;;;;;;;;;;18.50;1.00;;;;;;4988581;28;20023;-65
2021/08/26 11:40:41;;;;;;;;;;;18.40;1.00;;;;;;4989630;28;19910;-65
2021/08/26 11:43:07;;;;;;;;;;;18.20;14.70;;;;;;4988984;28;20025;-65
2021/08/26 11:45:33;;;;;;;;;;;18.20;81.10;;;;;;4988931;28;19910;-64
2021/08/26 11:48:00;;;;;;;;;;;18.30;95.40;;;;;;4989635;28;19921;-64
2021/08/26 11:50:31;;;;;;;;;;;18.40;99.90;;;;;;4989352;28;19960;-65
2021/08/26 11:52:58;;;;;;;;;;;18.40;96.70;;;;;;4989144;28;19921;-65
2021/08/26 11:55:25;;;;;;;;;;;18.30;99.90;;;;;;4989297;28;19964;-64
2021/08/26 11:57:54;;;;;;;;;;;18.40;99.90;;;;;;4988439;28;19910;-65
2021/08/26 12:00:20;;;;;;;;;;;18.40;63.30;;;;;;4988899;28;19921;-65
2021/08/26 12:02:49;;;;;;;;;;;18.40;64.20;;;;;;4988243;28;19964;-65
2021/08/26 12:05:15;;;;;;;;;;;18.40;95.00;;;;;;4990149;28;20048;-65
2021/08/26 12:07:42;;;;;;;;;;;18.30;99.90;;;;;;4988772;28;19914;-64
2021/08/26 12:10:09;;;;;;;;;;;18.20;99.90;;;;;;4990522;28;20232;-65
2021/08/26 12:12:35;;;;;;;;;;;18.10;99.90;;;;;;4989270;28;20306;-66
2021/08/26 12:15:02;;;;;;;;;;;18.00;87.70;;;;;;4989751;28;20239;-65
2021/08/26 12:17:27;;;;;;;;;;;18.00;29.50;;;;;;4989221;28;19976;-65
2021/08/26 12:19:54;;;;;;;;;;;18.00;24.30;;;;;;4989578;28;19910;-64
2021/08/26 12:22:21;;;;;;;;;;;18.10;1.00;;;;;;4989018;28;19913;-65
2021/08/26 12:24:52;;;;;;;;;;;18.30;1.00;;;;;;4989879;28;19980;-65
2021/08/26 12:27:18;;;;;;;;;;;18.40;1.00;;;;;;4989733;28;20220;-65
2021/08/26 12:29:45;;;;;;;;;;;18.60;1.00;;;;;;4994022;28;19910;-65
2021/08/26 12:32:28;;;;;;;;;;;18.80;1.00;;;;;;4988313;28;19914;-65
2021/08/26 12:35:10;;;;;;;;;;;18.90;1.00;;;;;;4990438;28;20012;-65
2021/08/26 12:37:47;;;;;;;;;;;19.00;1.00;;;;;;4988842;28;19921;-65
2021/08/26 12:40:12;;;;;;;;;;;18.80;1.00;;;;;;4989435;28;20231;-65
2021/08/26 12:42:38;;;;;;;;;;;18.60;1.00;;;;;;4989030;28;19929;-64
2021/08/26 12:45:17;;;;;;;;;;;18.30;1.00;;;;;;4989750;28;20286;-64
2021/08/26 12:47:42;;;;;;;;;;;18.10;1.00;;;;;;4989570;28;19910;-64
2021/08/26 12:50:08;;;;;;;;;;;17.90;14.10;;;;;;4983506;28;19911;-64
2021/08/26 12:52:37;;;;;;;;;;;17.70;99.90;;;;;;4969774;28;19918;-65
2021/08/26 12:55:06;;;;;;;;;;;17.50;99.90;;;;;;4969844;28;19931;-65
2021/08/26 12:57:33;;;;;;;;;;;17.40;99.90;;;;;;4969652;28;20531;-64
2021/08/26 12:59:58;;;;;;;;;;;17.30;99.90;;;;;;4969737;28;19914;-64
2021/08/26 13:02:24;;;;;;;;;;;17.30;76.20;;;;;;4969970;28;19914;-64
2021/08/26 13:05:16;;;;;;;;;;;17.20;17.90;;;;;;4970186;28;20386;-65
2021/08/26 13:07:42;;;;;;;;;;;17.20;1.00;;;;;;4969710;28;19914;-64
2021/08/26 13:10:07;;;;;;;;;;;17.30;1.00;;;;;;4970726;28;19936;-65
2021/08/26 13:12:33;;;;;;;;;;;17.50;1.00;;;;;;4968996;28;19918;-65
2021/08/26 13:14:59;;;;;;;;;;;17.80;1.00;;;;;;4969750;28;19922;-65
2021/08/26 13:17:25;;;;;;;;;;;18.10;1.00;;;;;;4969443;28;19918;-65
2021/08/26 13:19:53;;;;;;;;;;;18.40;1.00;;;;;;4990451;28;19957;-65
2021/08/26 13:22:27;;;;;;;;;;;18.60;1.00;;;;;;4992608;28;19917;-63
2021/08/26 13:24:54;;;;;;;;;;;18.80;1.00;;;;;;4993390;28;19910;-67
2021/08/26 13:27:20;;;;;;;;;;;19.00;1.00;;;;;;4993244;28;19925;-67
2021/08/26 13:29:46;;;;;;;;;;;19.10;1.00;;;;;;4993659;28;19910;-67
2021/08/26 13:32:13;;;;;;;;;;;19.40;1.00;;;;;;4991677;28;20287;-67
2021/08/26 13:34:39;;;;;;;;;;;19.60;1.00;;;;;;4993302;28;19929;-65
2021/08/26 13:37:04;;;;;;;;;;;19.70;99.90;;;;;;4993037;28;20001;-66
2021/08/26 13:39:30;;;;;;;;;;;19.70;99.90;;;;;;4993617;28;19972;-66
2021/08/26 13:41:56;;;;;;;;;;;19.80;99.90;;;;;;4992090;28;19914;-66
2021/08/26 13:44:22;;;;;;;;;;;19.90;99.90;;;;;;4993312;28;19910;-65
2021/08/26 13:46:47;;;;;;;;;;;19.90;99.90;;;;;;4992432;28;19917;-65
2021/08/26 13:49:13;;;;;;;;;;;19.70;99.90;;;;;;4993052;28;19910;-65
2021/08/26 13:51:40;;;;;;;;;;;19.70;99.90;;;;;;4985093;28;20355;-64
2021/08/26 13:54:05;;;;;;;;;;;19.80;99.90;;;;;;4992842;28;19961;-64
2021/08/26 13:56:31;;;;;;;;;;;19.70;99.90;;;;;;4992758;28;19953;-65
2021/08/26 13:58:56;;;;;;;;;;;19.60;99.90;;;;;;4992710;28;20385;-68
2021/08/26 14:01:22;;;;;;;;;;;19.60;99.90;;;;;;4992938;28;19920;-64
2021/08/26 14:03:47;;;;;;;;;;;19.70;99.90;;;;;;4992439;28;19910;-64
2021/08/26 14:06:13;;;;;;;;;;;19.90;99.90;;;;;;4992703;28;19914;-66
2021/08/26 14:08:38;;;;;;;;;;;20.20;99.90;;;;;;4992391;28;19925;-64
2021/08/26 14:11:04;;;;;;;;;;;20.30;99.90;;;;;;4992476;28;19934;-66
2021/08/26 14:13:30;;;;;;;;;;;20.50;99.90;;;;;;4991598;28;19910;-64
2021/08/26 14:15:55;;;;;;;;;;;20.60;99.90;;;;;;4991471;28;19996;-66
2021/08/26 14:18:21;;;;;;;;;;;20.50;99.90;;;;;;4991745;28;19917;-65
2021/08/26 14:20:46;;;;;;;;;;;20.40;99.90;;;;;;4992284;28;20271;-65
2021/08/26 14:23:12;;;;;;;;;;;20.20;99.90;;;;;;4992044;28;19909;-65
2021/08/26 14:25:38;;;;;;;;;;;20.20;99.90;;;;;;4992313;28;19989;-65